Time;durP1;ratioP1;P1;durP2;ratioP2;P2;SDS_P1;SDS_P2;PMS_P1;PMS_P2;Temp;Humidity;BMP_temperature;BMP_pressure;BME280_temperature;BME280_humidity;BME280_pressure;Samples;Min_cycle;Max_cycle;Signal;HPM_P1;HPM_P2
2022/08/22 00:00:17;;;;;;;17.20;12.40;;;;;;;20.54;86.43;100311.42;107554;1247;62941;-73
2022/08/22 00:03:02;;;;;;;18.40;12.30;;;;;;;20.55;86.36;100315.67;107695;1247;63513;-72
2022/08/22 00:06:25;;;;;;;15.50;11.60;;;;;;;20.51;86.26;100309.38;107529;1249;59622;-73
2022/08/22 00:09:28;;;;;;;17.00;12.70;;;;;;;20.47;84.52;100305.14;107580;1247;74448;-73
2022/08/22 00:12:28;;;;;;;16.90;12.20;;;;;;;20.33;86.46;100304.29;107421;1247;61334;-72
2022/08/22 00:15:19;;;;;;;17.60;13.30;;;;;;;20.23;87.46;100302.21;107430;1247;70273;-71
2022/08/22 00:18:42;;;;;;;15.30;12.80;;;;;;;20.21;88.01;100304.14;107402;1247;74695;-71
2022/08/22 00:21:31;;;;;;;15.70;11.80;;;;;;;20.21;88.09;100301.03;107530;1247;59552;-70
2022/08/22 00:24:18;;;;;;;17.70;13.10;;;;;;;20.20;88.09;100303.14;107548;1247;57834;-73
2022/08/22 00:27:04;;;;;;;18.70;12.80;;;;;;;20.16;87.52;100299.91;107551;1247;62992;-71
2022/08/22 00:30:10;;;;;;;16.30;11.90;;;;;;;20.09;87.89;100300.73;107534;1247;72157;-69
2022/08/22 00:32:52;;;;;;;17.20;12.50;;;;;;;20.02;88.32;100300.07;107503;1247;70352;-72
2022/08/22 00:35:44;;;;;;;16.40;12.50;;;;;;;19.97;88.50;100302.56;107655;1247;73908;-73
2022/08/22 00:38:39;;;;;;;16.20;12.00;;;;;;;19.90;88.75;100297.70;107443;1248;63606;-76
2022/08/22 00:41:20;;;;;;;13.30;11.80;;;;;;;19.89;89.08;100299.63;107651;1247;58990;-75
2022/08/22 00:44:50;;;;;;;16.60;12.40;;;;;;;19.86;89.41;100302.25;107396;1247;75399;-74
2022/08/22 00:48:02;;;;;;;15.60;12.10;;;;;;;19.80;89.49;100303.50;107154;1248;62079;-73
2022/08/22 00:51:08;;;;;;;16.20;12.90;;;;;;;19.73;89.85;100299.32;107334;1248;60042;-72
2022/08/22 00:53:40;;;;;;;17.10;12.30;;;;;;;19.72;90.01;100300.10;107616;1247;73054;-73
2022/08/22 00:56:34;;;;;;;18.90;12.40;;;;;;;19.70;89.82;100302.58;107593;1247;59573;-72
2022/08/22 00:59:15;;;;;;;15.70;12.80;;;;;;;19.67;89.48;100303.86;107306;1250;59649;-77
2022/08/22 01:02:20;;;;;;;17.80;12.60;;;;;;;19.64;89.98;100307.30;107622;1247;64224;-69
2022/08/22 01:05:03;;;;;;;17.10;12.50;;;;;;;19.63;91.01;100310.67;107662;1247;60802;-74
2022/08/22 01:08:23;;;;;;;15.00;12.40;;;;;;;19.62;90.68;100313.89;107365;1247;70350;-73
2022/08/22 01:11:23;;;;;;;16.10;12.10;;;;;;;19.60;90.92;100314.99;107510;1248;63155;-73
2022/08/22 01:14:25;;;;;;;18.50;13.50;;;;;;;19.56;90.71;100309.85;107563;1247;62255;-74
2022/08/22 01:17:40;;;;;;;17.20;12.50;;;;;;;19.52;90.72;100306.23;107637;1247;57805;-73
2022/08/22 01:20:45;;;;;;;14.30;11.50;;;;;;;19.51;90.73;100305.95;107577;1247;62990;-73
2022/08/22 01:23:38;;;;;;;14.50;12.40;;;;;;;19.57;90.35;100311.64;107593;1246;62128;-73
2022/08/22 01:26:38;;;;;;;16.80;11.90;;;;;;;19.59;90.15;100314.61;107564;1247;69808;-69
2022/08/22 01:29:38;;;;;;;18.40;12.50;;;;;;;19.57;90.22;100316.75;107675;1247;62838;-71
2022/08/22 01:32:47;;;;;;;15.70;11.90;;;;;;;19.54;90.30;100316.10;107626;1247;62231;-72
2022/08/22 01:36:01;;;;;;;19.00;12.50;;;;;;;19.48;89.99;100313.80;107665;1247;58335;-72
2022/08/22 01:39:13;;;;;;;15.30;12.30;;;;;;;19.40;91.18;100311.70;107612;1247;65265;-70
2022/08/22 01:42:23;;;;;;;18.00;12.40;;;;;;;19.34;91.03;100311.31;107286;1250;61686;-71
2022/08/22 01:45:17;;;;;;;15.80;12.20;;;;;;;19.27;89.40;100313.40;107637;1247;70571;-71
2022/08/22 01:48:19;;;;;;;16.30;12.30;;;;;;;19.19;89.41;100315.49;107592;1247;63691;-71
2022/08/22 01:51:19;;;;;;;15.00;12.50;;;;;;;19.10;92.40;100315.36;107422;1247;62810;-71
2022/08/22 01:54:23;;;;;;;19.20;12.70;;;;;;;19.07;92.72;100315.52;107489;1247;57970;-71
2022/08/22 01:57:00;;;;;;;17.80;11.90;;;;;;;19.09;92.67;100320.30;107218;1248;65086;-75
2022/08/22 01:59:41;;;;;;;17.50;11.80;;;;;;;19.11;92.56;100324.29;107301;1247;72755;-71
2022/08/22 02:02:46;;;;;;;15.70;12.40;;;;;;;19.12;92.34;100325.21;107377;1247;61103;-74
2022/08/22 02:05:16;;;;;;;21.30;12.30;;;;;;;19.15;92.18;100327.10;107368;1247;73108;-70
2022/08/22 02:08:16;;;;;;;15.40;12.20;;;;;;;19.14;91.31;100328.52;107383;1247;59612;-70
2022/08/22 02:11:10;;;;;;;14.40;11.70;;;;;;;19.09;91.50;100328.71;106829;1250;59618;-70
2022/08/22 02:14:30;;;;;;;16.60;11.00;;;;;;;19.01;91.92;100328.13;107442;1247;63782;-70
2022/08/22 02:17:19;;;;;;;13.70;11.20;;;;;;;18.99;92.23;100327.92;107360;1247;72232;-70
2022/08/22 02:20:19;;;;;;;15.30;11.40;;;;;;;18.98;93.24;100322.14;107277;1247;70478;-73
2022/08/22 02:23:05;;;;;;;15.50;12.50;;;;;;;18.97;93.61;100319.52;107420;1247;63682;-73
2022/08/22 02:25:45;;;;;;;14.80;12.60;;;;;;;18.95;92.42;100320.55;107513;1247;62192;-72
2022/08/22 02:28:47;;;;;;;14.30;12.20;;;;;;;18.91;91.26;100319.77;107626;1247;61058;-72
2022/08/22 02:31:40;;;;;;;14.90;12.10;;;;;;;18.87;92.89;100319.86;107596;1247;74392;-74
2022/08/22 02:34:37;;;;;;;14.90;12.00;;;;;;;18.89;94.55;100321.77;107367;1248;72270;-74
2022/08/22 02:37:33;;;;;;;14.20;11.40;;;;;;;18.90;92.38;100321.27;107502;1247;70431;-71
2022/08/22 02:40:26;;;;;;;19.00;12.10;;;;;;;18.92;92.95;100323.34;107360;1247;63784;-72
2022/08/22 02:43:19;;;;;;;;;;;;;;;18.96;93.08;100327.19;107471;1247;59643;-74
2022/08/22 02:46:04;;;;;;;15.40;12.00;;;;;;;18.98;93.59;100328.02;107328;1250;61134;-72
2022/08/22 02:49:13;;;;;;;14.70;12.00;;;;;;;18.95;92.88;100322.73;107618;1247;74656;-72
2022/08/22 02:52:17;;;;;;;16.90;12.60;;;;;;;18.99;92.74;100327.73;107579;1247;60669;-72
2022/08/22 02:55:12;;;;;;;15.80;13.00;;;;;;;18.97;91.50;100326.30;107614;1247;59893;-71
2022/08/22 02:57:52;;;;;;;15.90;13.00;;;;;;;18.95;91.93;100331.20;107607;1247;62505;-72
2022/08/22 03:01:01;;;;;;;16.20;12.90;;;;;;;18.94;93.20;100331.96;107710;1247;59630;-70
2022/08/22 03:03:39;;;;;;;16.00;13.70;;;;;;;18.94;92.65;100330.90;107532;1247;59680;-79
2022/08/22 03:06:33;;;;;;;18.90;13.00;;;;;;;18.96;94.34;100333.71;107622;1247;72787;-76
2022/08/22 03:09:12;;;;;;;17.30;12.60;;;;;;;19.01;94.49;100334.91;107375;1249;61481;-72
2022/08/22 03:11:48;;;;;;;15.50;12.10;;;;;;;19.05;94.27;100337.02;107633;1247;59163;-73
2022/08/22 03:14:42;;;;;;;15.70;11.90;;;;;;;19.09;94.16;100340.46;107555;1247;73774;-74
2022/08/22 03:17:27;;;;;;;15.20;11.70;;;;;;;19.14;93.69;100340.05;107376;1247;63383;-75
2022/08/22 03:20:37;;;;;;;16.50;11.90;;;;;;;19.17;93.47;100341.39;107532;1247;58976;-73
2022/08/22 03:23:16;;;;;;;22.90;12.10;;;;;;;19.18;93.05;100339.44;107346;1248;74251;-73
2022/08/22 03:25:50;;;;;;;17.90;11.90;;;;;;;19.21;92.83;100345.34;107548;1247;72666;-78
2022/08/22 03:28:59;;;;;;;16.40;12.10;;;;;;;19.27;92.11;100344.77;107390;1250;70173;-76
2022/08/22 03:31:31;;;;;;;19.10;12.70;;;;;;;19.26;92.13;100345.43;107628;1246;73334;-75
2022/08/22 03:34:21;;;;;;;16.90;12.50;;;;;;;19.26;91.87;100344.77;107531;1247;59589;-73
2022/08/22 03:37:34;;;;;;;19.10;13.40;;;;;;;19.26;91.79;100342.27;107416;1250;59519;-75
2022/08/22 03:40:26;;;;;;;18.80;12.10;;;;;;;19.25;91.61;100341.64;107602;1247;73562;-73
2022/08/22 03:43:30;;;;;;;19.50;12.10;;;;;;;19.22;91.77;100340.42;107415;1250;61340;-78
2022/08/22 03:46:30;;;;;;;14.80;11.50;;;;;;;19.14;91.96;100344.31;107643;1247;69685;-74
2022/08/22 03:49:14;;;;;;;14.60;11.00;;;;;;;19.16;92.26;100350.33;107333;1248;63800;-75
2022/08/22 03:52:10;;;;;;;23.20;12.80;;;;;;;19.18;92.27;100352.00;107630;1247;61183;-79
2022/08/22 03:54:48;;;;;;;16.70;11.10;;;;;;;19.25;91.57;100359.17;107602;1247;58558;-75
2022/08/22 03:58:15;;;;;;;15.70;10.60;;;;;;;19.23;91.48;100355.64;107603;1247;73583;-75
2022/08/22 04:01:55;;;;;;;15.30;10.60;;;;;;;19.17;91.63;100357.93;106981;1254;71985;-74
2022/08/22 04:05:01;;;;;;;16.40;10.80;;;;;;;19.17;91.92;100363.92;107089;1247;70746;-72
2022/08/22 04:07:54;;;;;;;16.70;11.80;;;;;;;19.16;91.74;100368.48;107607;1246;74257;-74
2022/08/22 04:10:50;;;;;;;;;;;;;;;19.21;92.44;100370.71;107697;1247;59644;-75
2022/08/22 04:13:37;;;;;;;18.20;12.80;;;;;;;19.32;92.13;100376.84;107718;1247;58897;-71
2022/08/22 04:16:48;;;;;;;18.90;12.30;;;;;;;19.41;91.79;100378.74;107741;1247;64264;-74
2022/08/22 04:19:35;;;;;;;17.60;12.20;;;;;;;19.48;91.42;100378.35;107490;1247;72236;-76
2022/08/22 04:22:22;;;;;;;18.10;13.00;;;;;;;19.55;91.04;100373.67;107668;1247;67469;-74
2022/08/22 04:25:13;;;;;;;15.70;12.40;;;;;;;19.61;90.85;100378.27;107671;1247;63089;-76
2022/08/22 04:28:05;;;;;;;19.40;12.90;;;;;;;19.68;90.04;100376.10;107611;1247;62913;-74
2022/08/22 04:31:00;;;;;;;16.40;12.00;;;;;;;19.74;89.80;100379.67;107662;1247;63063;-73
2022/08/22 04:34:27;;;;;;;15.20;12.80;;;;;;;19.82;89.47;100383.52;107916;1247;74158;-76
2022/08/22 04:37:09;;;;;;;19.20;14.20;;;;;;;19.85;89.31;100374.31;107591;1247;62074;-76
2022/08/22 04:39:54;;;;;;;15.30;12.60;;;;;;;19.87;89.19;100374.02;107661;1247;59095;-76
2022/08/22 04:42:41;;;;;;;17.90;12.40;;;;;;;19.86;89.83;100373.34;107584;1247;73957;-77
2022/08/22 04:45:31;;;;;;;19.70;13.30;;;;;;;19.97;88.93;100370.30;107495;1247;61743;-76
2022/08/22 04:48:25;;;;;;;14.90;12.20;;;;;;;20.02;88.68;100368.59;107421;1247;59594;-74
2022/08/22 04:51:15;;;;;;;15.30;12.50;;;;;;;20.10;88.48;100369.86;107361;1247;63041;-76
2022/08/22 04:54:05;;;;;;;17.30;13.00;;;;;;;20.19;88.44;100371.50;107487;1247;61181;-77
2022/08/22 04:57:14;;;;;;;17.70;13.30;;;;;;;20.30;88.03;100371.05;107276;1248;69344;-75
2022/08/22 04:59:43;;;;;;;20.80;13.80;;;;;;;20.45;87.54;100373.60;107433;1247;74434;-76
2022/08/22 05:02:22;;;;;;;17.70;13.50;;;;;;;20.53;87.16;100372.05;107296;1250;63409;-78
2022/08/22 05:05:02;;;;;;;20.30;12.80;;;;;;;20.66;86.98;100374.10;107529;1247;59576;-76
2022/08/22 05:07:40;;;;;;;16.40;11.50;;;;;;;20.72;86.88;100376.59;107448;1248;64274;-79
2022/08/22 05:10:47;;;;;;;21.80;13.00;;;;;;;20.67;86.67;100379.09;107472;1247;72210;-76
2022/08/22 05:13:38;;;;;;;20.90;13.50;;;;;;;20.64;87.20;100374.61;106967;1253;60007;-80
2022/08/22 05:16:18;;;;;;;18.50;12.70;;;;;;;20.70;86.79;100373.62;107384;1247;74034;-78
2022/08/22 05:18:54;;;;;;;21.30;12.90;;;;;;;20.70;86.77;100373.05;107604;1247;63312;-79
2022/08/22 05:21:31;;;;;;;15.80;12.60;;;;;;;20.74;86.77;100379.67;107660;1247;60274;-71
2022/08/22 05:24:10;;;;;;;16.70;12.00;;;;;;;20.79;86.49;100385.41;107679;1247;73399;-74
2022/08/22 05:26:49;;;;;;;17.00;11.80;;;;;;;20.89;86.13;100389.84;107608;1247;72847;-75
2022/08/22 05:29:24;;;;;;;19.40;12.80;;;;;;;21.01;85.35;100390.58;107643;1247;70406;-75
2022/08/22 05:32:06;;;;;;;21.50;14.90;;;;;;;21.08;85.08;100392.86;107257;1250;74389;-76
2022/08/22 05:34:40;;;;;;;17.30;13.60;;;;;;;21.16;84.82;100396.81;107554;1247;64178;-76
2022/08/22 05:37:33;;;;;;;19.20;13.60;;;;;;;21.22;84.83;100396.80;107613;1247;57810;-76
2022/08/22 05:40:02;;;;;;;26.20;14.90;;;;;;;21.36;84.10;100393.85;107466;1247;74162;-75
2022/08/22 05:42:36;;;;;;;23.20;14.10;;;;;;;21.47;83.60;100397.70;107546;1247;61497;-72
2022/08/22 05:45:07;;;;;;;28.50;14.80;;;;;;;21.53;83.34;100401.59;107606;1247;69724;-73
2022/08/22 05:48:02;;;;;;;21.70;13.70;;;;;;;21.63;82.62;100399.56;107554;1247;74323;-69
2022/08/22 05:51:12;;;;;;;19.00;13.50;;;;;;;21.77;82.34;100396.55;107689;1247;58910;-75
2022/08/22 05:53:47;;;;;;;20.40;14.00;;;;;;;21.92;81.56;100392.55;107030;1254;59522;-79
2022/08/22 05:56:36;;;;;;;17.10;12.70;;;;;;;21.98;81.15;100389.59;107403;1248;74421;-76
2022/08/22 05:59:29;;;;;;;20.70;13.40;;;;;;;22.17;80.60;100394.39;107625;1247;73605;-77
2022/08/22 06:02:11;;;;;;;21.40;13.90;;;;;;;22.26;80.13;100402.02;107697;1247;70104;-74
2022/08/22 06:04:59;;;;;;;17.50;12.60;;;;;;;22.36;80.05;100401.48;107542;1247;63546;-75
2022/08/22 06:07:45;;;;;;;20.20;13.40;;;;;;;22.46;79.46;100397.27;107594;1249;59658;-75
2022/08/22 06:10:45;;;;;;;18.70;13.60;;;;;;;22.56;79.04;100397.22;107617;1247;61342;-76
2022/08/22 06:13:31;;;;;;;20.40;13.60;;;;;;;22.75;78.06;100394.85;107540;1250;63981;-77
2022/08/22 06:16:21;;;;;;;19.90;13.70;;;;;;;22.85;77.18;100396.41;107431;1247;61267;-75
2022/08/22 06:18:51;;;;;;;22.20;13.20;;;;;;;22.84;77.03;100400.39;107609;1247;60002;-76
2022/08/22 06:21:34;;;;;;;15.40;12.60;;;;;;;22.95;76.81;100395.45;107551;1247;62513;-75
2022/08/22 06:24:15;;;;;;;16.70;13.60;;;;;;;23.11;76.39;100398.34;107632;1247;63130;-76
2022/08/22 06:26:47;;;;;;;22.10;12.50;;;;;;;23.20;75.95;100401.73;107526;1247;60692;-76
2022/08/22 06:29:29;;;;;;;19.80;11.20;;;;;;;23.38;75.25;100404.23;107307;1248;64274;-76
2022/08/22 06:32:02;;;;;;;16.80;12.00;;;;;;;23.50;74.81;100404.66;107732;1247;62615;-76
2022/08/22 06:34:38;;;;;;;17.80;12.10;;;;;;;23.58;74.64;100400.25;107734;1247;60809;-75
2022/08/22 06:37:15;;;;;;;16.70;12.50;;;;;;;23.70;73.86;100405.52;107565;1247;73558;-74
2022/08/22 06:39:49;;;;;;;16.90;12.50;;;;;;;23.89;72.85;100406.55;107653;1247;59588;-75
2022/08/22 06:42:24;;;;;;;17.10;11.30;;;;;;;23.99;72.79;100407.35;107526;1250;59652;-75
2022/08/22 06:45:06;;;;;;;18.20;11.60;;;;;;;24.12;72.31;100405.38;107687;1247;65683;-76
2022/08/22 06:47:47;;;;;;;17.90;12.10;;;;;;;24.22;71.33;100407.70;107552;1247;61288;-75
2022/08/22 06:50:24;;;;;;;19.50;12.00;;;;;;;24.42;71.66;100407.94;107498;1247;60340;-75
2022/08/22 06:53:43;;;;;;;17.60;11.00;;;;;;;24.57;70.38;100405.91;107487;1247;72506;-76
2022/08/22 06:56:25;;;;;;;16.70;11.60;;;;;;;24.75;69.93;100405.69;107671;1247;58231;-73
2022/08/22 06:59:02;;;;;;;16.50;11.50;;;;;;;24.74;69.52;100408.00;107280;1247;60528;-75
2022/08/22 07:01:45;;;;;;;16.50;11.80;;;;;;;24.90;69.35;100408.75;107430;1248;63471;-74
2022/08/22 07:04:15;;;;;;;18.20;12.00;;;;;;;25.08;68.68;100407.25;107464;1247;61567;-75
2022/08/22 07:06:49;;;;;;;18.60;12.30;;;;;;;25.16;68.51;100403.81;107396;1250;70632;-76
2022/08/22 07:09:33;;;;;;;16.00;9.90;;;;;;;25.17;68.07;100403.40;107656;1247;62391;-75
2022/08/22 07:12:15;;;;;;;19.50;12.00;;;;;;;25.22;67.71;100405.63;107455;1248;59553;-76
2022/08/22 07:14:49;;;;;;;13.60;11.50;;;;;;;25.23;67.54;100402.08;107630;1247;60497;-76
2022/08/22 07:17:27;;;;;;;19.90;11.00;;;;;;;25.41;67.65;100401.14;107650;1247;74925;-76
2022/08/22 07:20:16;;;;;;;18.00;11.10;;;;;;;25.67;66.40;100406.19;107575;1247;62325;-76
2022/08/22 07:23:30;;;;;;;18.10;11.60;;;;;;;25.80;65.82;100403.51;107664;1247;70535;-77
2022/08/22 07:26:55;;;;;;;20.60;12.20;;;;;;;25.88;65.74;100404.50;107306;1248;63839;-77
2022/08/22 07:29:53;;;;;;;17.20;10.40;;;;;;;26.09;65.88;100400.95;107663;1246;61375;-75
2022/08/22 07:32:48;;;;;;;16.70;10.60;;;;;;;26.29;63.63;100401.77;107524;1247;58412;-76
2022/08/22 07:35:24;;;;;;;14.60;10.60;;;;;;;26.44;63.67;100404.09;107461;1247;74462;-75
2022/08/22 07:38:33;;;;;;;17.60;10.00;;;;;;;26.43;63.33;100401.45;107654;1247;60969;-77
2022/08/22 07:41:22;;;;;;;18.30;10.50;;;;;;;26.46;62.87;100400.83;107697;1247;60019;-76
2022/08/22 07:44:09;;;;;;;16.90;8.80;;;;;;;26.45;62.63;100397.18;107318;1250;63382;-77
2022/08/22 07:46:59;;;;;;;22.50;9.60;;;;;;;26.78;62.36;100397.93;107659;1247;59612;-76
2022/08/22 07:50:02;;;;;;;14.70;9.50;;;;;;;26.95;61.54;100399.82;107739;1247;60244;-76
2022/08/22 07:52:41;;;;;;;15.20;8.80;;;;;;;27.20;61.93;100396.23;107765;1247;74231;-75
2022/08/22 07:55:25;;;;;;;16.50;8.30;;;;;;;27.41;59.57;100397.15;107436;1248;62512;-76
2022/08/22 07:58:04;;;;;;;13.60;8.30;;;;;;;27.63;58.04;100395.84;107460;1247;70674;-76
2022/08/22 08:00:40;;;;;;;13.10;6.90;;;;;;;27.90;58.05;100397.82;107725;1247;64072;-76
2022/08/22 08:03:10;;;;;;;18.10;7.80;;;;;;;28.04;56.40;100399.53;107396;1247;59648;-77
2022/08/22 08:05:43;;;;;;;15.90;7.40;;;;;;;28.16;55.80;100397.81;107591;1247;61343;-77
2022/08/22 08:08:25;;;;;;;14.90;8.00;;;;;;;28.41;55.76;100393.02;107523;1248;63657;-76
2022/08/22 08:10:57;;;;;;;14.00;7.40;;;;;;;28.63;55.02;100391.08;107548;1250;71676;-76
2022/08/22 08:13:38;;;;;;;18.10;6.60;;;;;;;28.60;54.73;100393.21;107527;1247;59224;-77
2022/08/22 08:16:16;;;;;;;13.40;6.60;;;;;;;28.51;53.77;100393.83;107584;1247;73779;-77
2022/08/22 08:18:50;;;;;;;10.70;5.80;;;;;;;28.68;54.12;100389.46;107500;1250;59575;-78
2022/08/22 08:29:09;;;;;;;11.40;5.80;;;;;;;29.56;51.10;100379.83;104461;1282;602803;-76
2022/08/22 08:37:14;;;;;;;17.00;6.80;;;;;;;29.64;49.48;100376.84;104759;1286;599971;-75
2022/08/22 08:39:50;;;;;;;20.10;6.50;;;;;;;29.78;50.01;100377.18;107115;1257;60525;-76
2022/08/22 08:46:15;;;;;;;15.00;6.30;;;;;;;29.53;49.90;100381.39;106985;1256;61229;-75
2022/08/22 08:48:52;;;;;;;21.00;6.40;;;;;;;29.66;50.13;100381.08;106897;1256;71473;-76
2022/08/22 08:51:46;;;;;;;19.00;6.10;;;;;;;29.84;49.76;100373.45;105894;1253;1561681;-77
2022/08/22 08:54:34;;;;;;;22.60;6.80;;;;;;;29.89;49.41;100374.89;106915;1256;73519;-76
2022/08/22 08:57:35;;;;;;;21.00;6.60;;;;;;;30.15;49.64;100372.52;107014;1256;59085;-77
2022/08/22 09:00:49;;;;;;;22.00;7.10;;;;;;;30.51;48.62;100365.52;107050;1254;59054;-76
2022/08/22 11:30:15;;;;;;;21.80;5.40;;;;;;;31.85;39.73;100307.26;104454;1286;602281;-72
2022/08/22 11:33:11;;;;;;;15.00;4.60;;;;;;;32.16;38.81;100304.94;107034;1254;58868;-73
2022/08/22 11:35:43;;;;;;;15.90;4.40;;;;;;;32.32;37.73;100301.13;107111;1254;57247;-75
2022/08/22 11:38:34;;;;;;;19.60;4.70;;;;;;;32.40;36.91;100298.30;107153;1254;71877;-74
2022/08/22 11:41:28;;;;;;;14.00;4.00;;;;;;;32.68;36.47;100293.61;106935;1257;61222;-75
2022/08/22 11:44:21;;;;;;;21.30;4.50;;;;;;;32.91;36.44;100291.42;105684;1254;1845377;-74
2022/08/22 11:46:56;;;;;;;17.90;5.20;;;;;;;33.18;36.44;100295.55;107098;1254;75201;-76
2022/08/22 11:49:31;;;;;;;17.90;4.80;;;;;;;33.06;36.87;100299.50;107078;1256;57736;-75
2022/08/22 11:52:29;;;;;;;17.90;4.20;;;;;;;33.19;36.14;100303.34;107209;1253;57430;-74
2022/08/22 11:55:20;;;;;;;16.60;4.40;;;;;;;33.21;36.19;100305.09;107127;1253;60565;-74
2022/08/22 11:58:23;;;;;;;15.90;4.10;;;;;;;32.99;35.72;100301.77;107105;1254;72115;-75
2022/08/22 12:01:26;;;;;;;18.40;5.00;;;;;;;32.86;36.81;100296.95;107140;1254;61322;-75
2022/08/22 12:04:10;;;;;;;21.60;4.80;;;;;;;32.72;37.89;100283.10;107142;1254;74788;-75
2022/08/22 12:06:55;;;;;;;19.10;5.00;;;;;;;32.57;37.57;100283.86;107162;1254;57422;-73
2022/08/22 12:09:40;;;;;;;16.50;4.60;;;;;;;32.18;38.22;100283.60;107175;1253;61336;-73
2022/08/22 12:12:45;;;;;;;18.30;4.90;;;;;;;32.09;38.69;100278.37;107222;1254;73261;-76
2022/08/22 12:15:23;;;;;;;17.60;4.50;;;;;;;31.88;39.14;100271.20;107114;1254;72042;-74
2022/08/22 12:18:32;;;;;;;13.90;4.60;;;;;;;31.89;39.07;100272.18;107176;1253;70552;-74
2022/08/22 12:21:19;;;;;;;17.00;4.30;;;;;;;31.60;39.43;100272.19;107207;1252;63648;-74
2022/08/22 12:24:04;;;;;;;13.30;4.10;;;;;;;31.68;39.33;100272.46;107147;1254;61367;-74
2022/08/22 12:27:04;;;;;;;18.10;5.00;;;;;;;31.75;39.78;100267.54;107202;1254;61597;-75
2022/08/22 12:30:07;;;;;;;22.60;5.10;;;;;;;31.67;39.84;100265.23;107203;1254;62036;-74
2022/08/22 12:33:08;;;;;;;18.40;4.70;;;;;;;31.60;40.19;100266.59;107007;1254;60958;-76
2022/08/22 12:36:04;;;;;;;18.80;5.10;;;;;;;31.51;40.39;100262.80;107163;1254;59235;-76
2022/08/22 12:39:04;;;;;;;15.70;4.60;;;;;;;31.55;40.33;100262.98;107209;1254;73941;-75
2022/08/22 12:42:09;;;;;;;23.70;5.30;;;;;;;31.57;40.54;100260.20;107132;1253;60894;-76
2022/08/22 12:45:12;;;;;;;18.90;4.60;;;;;;;31.63;40.56;100258.07;107225;1253;58474;-77
2022/08/22 12:48:07;;;;;;;16.60;4.80;;;;;;;31.53;40.71;100255.42;107151;1254;72794;-76
2022/08/22 12:51:17;;;;;;;14.50;4.70;;;;;;;31.48;40.00;100254.78;107183;1253;62209;-75
2022/08/22 12:54:25;;;;;;;26.00;5.00;;;;;;;31.64;40.19;100258.55;107211;1253;60078;-75
2022/08/22 12:57:48;;;;;;;18.90;4.60;;;;;;;31.77;40.91;100253.72;107150;1254;62543;-76
2022/08/22 13:00:43;;;;;;;20.30;4.70;;;;;;;31.79;40.74;100243.81;106708;1255;59135;-77
2022/08/22 13:03:27;;;;;;;18.00;4.30;;;;;;;31.83;40.60;100237.42;106998;1254;60523;-74
2022/08/22 13:06:03;;;;;;;15.70;4.00;;;;;;;31.87;40.52;100235.33;106993;1255;73225;-77
2022/08/22 13:08:44;;;;;;;18.10;4.40;;;;;;;31.86;40.29;100239.05;107115;1253;72640;-74
2022/08/22 13:11:14;;;;;;;21.20;4.50;;;;;;;31.88;40.21;100239.92;107100;1253;70964;-75
2022/08/22 13:13:59;;;;;;;19.40;5.70;;;;;;;31.93;40.17;100246.77;107045;1254;73244;-75
2022/08/22 13:16:40;;;;;;;25.20;5.10;;;;;;;31.83;40.24;100244.48;107130;1254;59114;-76
2022/08/22 13:19:26;;;;;;;18.40;4.10;;;;;;;31.79;40.40;100247.59;107137;1254;57670;-76
2022/08/22 13:22:01;;;;;;;23.70;4.70;;;;;;;31.86;40.18;100248.34;107143;1254;61384;-77
2022/08/22 13:24:55;;;;;;;37.90;6.10;;;;;;;31.90;40.10;100247.06;107075;1254;60869;-74
2022/08/22 13:33:08;;;;;;;26.00;5.00;;;;;;;32.11;39.17;100246.98;107240;1254;64073;-74
2022/08/22 13:35:39;;;;;;;19.70;4.60;;;;;;;32.24;38.71;100250.55;107138;1254;58264;-75
2022/08/22 13:38:52;;;;;;;15.50;4.20;;;;;;;32.31;38.33;100249.89;107097;1253;61397;-75
2022/08/22 13:41:29;;;;;;;19.50;4.60;;;;;;;32.45;37.65;100245.18;106960;1254;61881;-76
2022/08/22 13:44:08;;;;;;;14.60;4.20;;;;;;;32.56;37.31;100249.31;106773;1254;72182;-75
2022/08/22 13:46:37;;;;;;;18.70;4.30;;;;;;;32.82;37.14;100251.79;106969;1254;61054;-75
2022/08/22 13:49:41;;;;;;;24.80;4.70;;;;;;;33.06;36.37;100257.23;106984;1254;74540;-75
2022/08/22 13:52:34;;;;;;;26.30;5.00;;;;;;;33.26;35.68;100262.00;106858;1253;60932;-75
2022/08/22 13:55:16;;;;;;;17.70;4.20;;;;;;;33.65;35.03;100265.47;106969;1254;58305;-76
2022/08/22 13:57:55;;;;;;;19.20;4.40;;;;;;;33.96;34.67;100270.39;106908;1254;72013;-75
2022/08/22 14:01:04;;;;;;;22.70;4.50;;;;;;;34.12;34.79;100274.25;106978;1254;72683;-74
2022/08/22 14:03:57;;;;;;;21.60;4.60;;;;;;;34.46;34.02;100281.40;107105;1254;59492;-74
2022/08/22 14:06:39;;;;;;;21.00;5.00;;;;;;;34.76;33.74;100285.26;107091;1254;73956;-74
2022/08/22 14:09:29;;;;;;;26.90;4.80;;;;;;;34.94;33.33;100285.89;106992;1253;60815;-75
2022/08/22 14:12:19;;;;;;;20.80;4.20;;;;;;;34.90;33.70;100286.90;107181;1254;58617;-77
2022/08/22 14:15:01;;;;;;;27.40;5.70;;;;;;;34.61;33.77;100282.52;107462;1250;72696;-76
2022/08/22 14:17:39;;;;;;;24.40;4.90;;;;;;;34.42;34.37;100280.94;107314;1250;71743;-76
2022/08/22 14:20:23;;;;;;;30.40;6.10;;;;;;;34.14;34.43;100279.69;107288;1250;61549;-76
2022/08/22 14:23:16;;;;;;;27.00;4.90;;;;;;;34.35;35.08;100277.98;107357;1251;74857;-75
2022/08/22 14:25:46;;;;;;;24.70;6.30;;;;;;;34.16;34.60;100274.70;107407;1250;57459;-75
2022/08/22 14:28:32;;;;;;;24.20;5.40;;;;;;;34.10;35.32;100272.25;107380;1250;61309;-74
2022/08/22 14:31:10;;;;;;;23.30;5.10;;;;;;;34.13;35.47;100273.10;107412;1250;73671;-75
2022/08/22 14:33:50;;;;;;;22.90;4.70;;;;;;;34.08;35.86;100274.20;107358;1250;62192;-74
2022/08/22 14:36:46;;;;;;;25.60;4.70;;;;;;;33.85;36.04;100271.83;107398;1250;59235;-74
2022/08/22 14:39:37;;;;;;;21.50;4.50;;;;;;;33.64;36.23;100277.66;107345;1250;65023;-72
2022/08/22 14:42:24;;;;;;;15.90;4.10;;;;;;;33.39;36.96;100281.27;107380;1250;60843;-74
2022/08/22 14:45:23;;;;;;;25.60;4.90;;;;;;;33.35;36.96;100284.34;107387;1250;60946;-75
2022/08/22 14:48:28;;;;;;;22.20;5.40;;;;;;;33.39;36.70;100285.61;107419;1250;62623;-74
2022/08/22 14:51:09;;;;;;;15.00;4.20;;;;;;;33.43;36.50;100280.40;107429;1250;61704;-74
2022/08/22 14:53:39;;;;;;;17.60;4.30;;;;;;;33.25;37.12;100280.17;107326;1251;60160;-76
2022/08/22 14:56:20;;;;;;;25.10;4.60;;;;;;;33.05;37.49;100279.05;107615;1250;73003;-75
2022/08/22 14:59:01;;;;;;;30.30;4.90;;;;;;;33.01;38.01;100276.55;107433;1250;59816;-74
2022/08/22 15:01:48;;;;;;;27.00;5.20;;;;;;;32.71;38.32;100274.16;107054;1250;60962;-74
2022/08/22 15:04:39;;;;;;;23.00;4.70;;;;;;;32.45;38.61;100274.85;107440;1251;62731;-74
2022/08/22 15:07:11;;;;;;;25.20;4.70;;;;;;;32.30;39.39;100276.30;107434;1251;72529;-74
2022/08/22 15:09:56;;;;;;;24.00;5.10;;;;;;;32.24;39.67;100277.84;107347;1250;70057;-73
2022/08/22 15:12:39;;;;;;;23.60;5.20;;;;;;;32.31;39.34;100280.14;107374;1250;73450;-74
2022/08/22 15:15:25;;;;;;;23.80;5.00;;;;;;;32.17;39.82;100283.86;107475;1250;60675;-73
2022/08/22 15:17:54;;;;;;;25.10;5.20;;;;;;;32.09;39.91;100286.59;107397;1249;58918;-73
2022/08/22 15:20:34;;;;;;;20.80;4.50;;;;;;;31.99;40.02;100286.49;107328;1253;63125;-72
2022/08/22 15:23:22;;;;;;;22.90;4.30;;;;;;;31.88;40.34;100288.86;107470;1252;60719;-74
2022/08/22 15:26:02;;;;;;;25.40;5.30;;;;;;;31.83;41.00;100288.23;107592;1250;69577;-80
2022/08/22 15:28:35;;;;;;;23.90;5.20;;;;;;;31.79;41.47;100286.48;107346;1252;63062;-73
2022/08/22 15:31:21;;;;;;;20.10;4.20;;;;;;;31.74;41.34;100286.27;107521;1250;58946;-77
2022/08/22 15:33:51;;;;;;;21.70;4.90;;;;;;;31.65;41.92;100281.36;107337;1250;62623;-74